sensor_id;sensor_type;location;lat;lon;timestamp;temperature;humidity
39665;DHT22;26679;50.872;4.332;2024-01-16T00:01:51;19.90;60.10
39665;DHT22;26679;50.872;4.332;2024-01-16T00:04:17;19.90;60.10
39665;DHT22;26679;50.872;4.332;2024-01-16T00:06:42;19.90;60.10
39665;DHT22;26679;50.872;4.332;2024-01-16T00:09:08;19.90;60.10
39665;DHT22;26679;50.872;4.332;2024-01-16T00:11:41;19.90;60.10
39665;DHT22;26679;50.872;4.332;2024-01-16T00:14:06;19.90;60.10
39665;DHT22;26679;50.872;4.332;2024-01-16T00:16:32;19.80;60.10
39665;DHT22;26679;50.872;4.332;2024-01-16T00:18:57;19.70;60.10
39665;DHT22;26679;50.872;4.332;2024-01-16T00:21:23;19.70;60.10
39665;DHT22;26679;50.872;4.332;2024-01-16T00:23:48;19.70;60.10
39665;DHT22;26679;50.872;4.332;2024-01-16T00:26:20;19.60;60.10
39665;DHT22;26679;50.872;4.332;2024-01-16T00:28:46;19.60;60.10
39665;DHT22;26679;50.872;4.332;2024-01-16T00:31:12;19.50;60.10
39665;DHT22;26679;50.872;4.332;2024-01-16T00:33:37;19.50;60.20
39665;DHT22;26679;50.872;4.332;2024-01-16T00:36:02;19.50;60.20
39665;DHT22;26679;50.872;4.332;2024-01-16T00:38:28;19.40;60.20
39665;DHT22;26679;50.872;4.332;2024-01-16T00:40:53;19.40;60.20
39665;DHT22;26679;50.872;4.332;2024-01-16T00:43:19;19.40;60.20
39665;DHT22;26679;50.872;4.332;2024-01-16T00:45:45;19.30;60.20
39665;DHT22;26679;50.872;4.332;2024-01-16T00:48:11;19.30;60.20
39665;DHT22;26679;50.872;4.332;2024-01-16T00:50:39;19.30;60.20
39665;DHT22;26679;50.872;4.332;2024-01-16T00:53:04;19.30;60.20
39665;DHT22;26679;50.872;4.332;2024-01-16T00:55:30;19.30;60.70
39665;DHT22;26679;50.872;4.332;2024-01-16T00:57:55;19.20;60.10
39665;DHT22;26679;50.872;4.332;2024-01-16T01:00:21;19.20;60.20
39665;DHT22;26679;50.872;4.332;2024-01-16T01:02:46;19.10;60.20
39665;DHT22;26679;50.872;4.332;2024-01-16T01:05:12;19.10;60.20
39665;DHT22;26679;50.872;4.332;2024-01-16T01:07:37;19.10;60.20
39665;DHT22;26679;50.872;4.332;2024-01-16T01:10:03;19.00;60.10
39665;DHT22;26679;50.872;4.332;2024-01-16T01:12:28;19.00;60.10
39665;DHT22;26679;50.872;4.332;2024-01-16T01:14:54;19.00;60.20
39665;DHT22;26679;50.872;4.332;2024-01-16T01:17:19;19.00;60.20
39665;DHT22;26679;50.872;4.332;2024-01-16T01:19:45;18.90;60.10
39665;DHT22;26679;50.872;4.332;2024-01-16T01:22:11;18.90;60.20
39665;DHT22;26679;50.872;4.332;2024-01-16T01:24:37;18.90;60.20
39665;DHT22;26679;50.872;4.332;2024-01-16T01:27:03;18.80;60.10
39665;DHT22;26679;50.872;4.332;2024-01-16T01:29:29;18.80;60.10
39665;DHT22;26679;50.872;4.332;2024-01-16T01:31:54;18.80;60.10
39665;DHT22;26679;50.872;4.332;2024-01-16T01:34:20;18.80;60.10
39665;DHT22;26679;50.872;4.332;2024-01-16T01:36:45;18.80;60.10
39665;DHT22;26679;50.872;4.332;2024-01-16T01:39:11;18.80;60.10
39665;DHT22;26679;50.872;4.332;2024-01-16T01:41:37;18.70;60.10
39665;DHT22;26679;50.872;4.332;2024-01-16T01:44:02;18.70;60.10
39665;DHT22;26679;50.872;4.332;2024-01-16T01:46:28;18.70;60.10
39665;DHT22;26679;50.872;4.332;2024-01-16T01:48:54;18.70;60.10
39665;DHT22;26679;50.872;4.332;2024-01-16T01:51:20;18.60;60.00
39665;DHT22;26679;50.872;4.332;2024-01-16T01:53:46;18.60;60.10
39665;DHT22;26679;50.872;4.332;2024-01-16T01:56:19;18.60;60.10
39665;DHT22;26679;50.872;4.332;2024-01-16T01:58:46;18.60;60.10
39665;DHT22;26679;50.872;4.332;2024-01-16T02:01:12;18.50;60.00
39665;DHT22;26679;50.872;4.332;2024-01-16T02:03:42;18.60;60.10
39665;DHT22;26679;50.872;4.332;2024-01-16T02:06:08;18.50;60.00
39665;DHT22;26679;50.872;4.332;2024-01-16T02:08:34;18.50;60.00
39665;DHT22;26679;50.872;4.332;2024-01-16T02:10:59;18.50;60.10
39665;DHT22;26679;50.872;4.332;2024-01-16T02:13:25;18.50;60.10
39665;DHT22;26679;50.872;4.332;2024-01-16T02:15:50;18.50;60.00
39665;DHT22;26679;50.872;4.332;2024-01-16T02:18:16;18.40;60.00
39665;DHT22;26679;50.872;4.332;2024-01-16T02:20:42;18.40;60.00
39665;DHT22;26679;50.872;4.332;2024-01-16T02:23:07;18.40;60.00
39665;DHT22;26679;50.872;4.332;2024-01-16T02:25:35;18.40;60.00
39665;DHT22;26679;50.872;4.332;2024-01-16T02:28:01;18.30;60.00
39665;DHT22;26679;50.872;4.332;2024-01-16T02:30:27;18.30;60.00
39665;DHT22;26679;50.872;4.332;2024-01-16T02:32:52;18.30;60.00
39665;DHT22;26679;50.872;4.332;2024-01-16T02:35:18;18.30;60.00
39665;DHT22;26679;50.872;4.332;2024-01-16T02:37:43;18.30;60.00
39665;DHT22;26679;50.872;4.332;2024-01-16T02:40:09;18.30;60.10
39665;DHT22;26679;50.872;4.332;2024-01-16T02:42:35;18.30;60.10
39665;DHT22;26679;50.872;4.332;2024-01-16T02:45:02;18.30;60.10
39665;DHT22;26679;50.872;4.332;2024-01-16T02:47:29;18.20;60.10
39665;DHT22;26679;50.872;4.332;2024-01-16T02:49:54;18.20;60.10
39665;DHT22;26679;50.872;4.332;2024-01-16T02:52:20;18.20;60.10
39665;DHT22;26679;50.872;4.332;2024-01-16T02:54:45;18.20;60.10
39665;DHT22;26679;50.872;4.332;2024-01-16T02:57:11;18.20;60.10
39665;DHT22;26679;50.872;4.332;2024-01-16T02:59:36;18.20;60.10
39665;DHT22;26679;50.872;4.332;2024-01-16T03:02:02;18.20;60.20
39665;DHT22;26679;50.872;4.332;2024-01-16T03:04:28;18.10;60.20
39665;DHT22;26679;50.872;4.332;2024-01-16T03:06:53;18.10;60.10
39665;DHT22;26679;50.872;4.332;2024-01-16T03:09:18;18.10;60.10
39665;DHT22;26679;50.872;4.332;2024-01-16T03:11:44;18.10;60.10
39665;DHT22;26679;50.872;4.332;2024-01-16T03:14:09;18.10;60.10
39665;DHT22;26679;50.872;4.332;2024-01-16T03:16:35;18.20;60.10
39665;DHT22;26679;50.872;4.332;2024-01-16T03:19:00;18.20;60.10
39665;DHT22;26679;50.872;4.332;2024-01-16T03:21:26;18.20;60.00
39665;DHT22;26679;50.872;4.332;2024-01-16T03:23:51;18.20;60.00
39665;DHT22;26679;50.872;4.332;2024-01-16T03:26:17;18.30;60.00
39665;DHT22;26679;50.872;4.332;2024-01-16T03:28:42;18.30;59.90
39665;DHT22;26679;50.872;4.332;2024-01-16T03:31:08;18.40;59.90
39665;DHT22;26679;50.872;4.332;2024-01-16T03:33:33;18.50;59.80
39665;DHT22;26679;50.872;4.332;2024-01-16T03:36:00;18.50;59.80
39665;DHT22;26679;50.872;4.332;2024-01-16T03:38:25;18.60;59.70
39665;DHT22;26679;50.872;4.332;2024-01-16T03:40:51;18.70;59.70
39665;DHT22;26679;50.872;4.332;2024-01-16T03:43:17;18.80;59.60
39665;DHT22;26679;50.872;4.332;2024-01-16T03:45:42;18.80;59.50
39665;DHT22;26679;50.872;4.332;2024-01-16T03:48:08;18.90;59.40
39665;DHT22;26679;50.872;4.332;2024-01-16T03:50:33;19.00;59.40
39665;DHT22;26679;50.872;4.332;2024-01-16T03:53:01;19.10;59.30
39665;DHT22;26679;50.872;4.332;2024-01-16T03:55:26;19.20;59.20
39665;DHT22;26679;50.872;4.332;2024-01-16T03:57:52;19.30;59.20
39665;DHT22;26679;50.872;4.332;2024-01-16T04:00:17;19.40;59.10
39665;DHT22;26679;50.872;4.332;2024-01-16T04:02:43;19.50;59.00
39665;DHT22;26679;50.872;4.332;2024-01-16T04:05:08;19.50;58.90
39665;DHT22;26679;50.872;4.332;2024-01-16T04:07:34;19.60;58.90
39665;DHT22;26679;50.872;4.332;2024-01-16T04:09:59;19.70;58.80
39665;DHT22;26679;50.872;4.332;2024-01-16T04:12:25;19.80;58.80
39665;DHT22;26679;50.872;4.332;2024-01-16T04:14:50;19.90;58.70
39665;DHT22;26679;50.872;4.332;2024-01-16T04:17:15;20.00;58.60
39665;DHT22;26679;50.872;4.332;2024-01-16T04:19:41;20.10;58.50
39665;DHT22;26679;50.872;4.332;2024-01-16T04:22:06;20.10;58.40
39665;DHT22;26679;50.872;4.332;2024-01-16T04:24:32;20.20;58.40
39665;DHT22;26679;50.872;4.332;2024-01-16T04:26:58;20.20;58.30
39665;DHT22;26679;50.872;4.332;2024-01-16T04:29:23;20.30;58.30
39665;DHT22;26679;50.872;4.332;2024-01-16T04:31:48;20.40;58.20
39665;DHT22;26679;50.872;4.332;2024-01-16T04:34:14;20.50;58.20
39665;DHT22;26679;50.872;4.332;2024-01-16T04:36:39;20.60;58.10
39665;DHT22;26679;50.872;4.332;2024-01-16T04:39:05;20.60;58.00
39665;DHT22;26679;50.872;4.332;2024-01-16T04:41:30;20.70;58.00
39665;DHT22;26679;50.872;4.332;2024-01-16T04:43:56;20.70;58.00
39665;DHT22;26679;50.872;4.332;2024-01-16T04:46:21;20.80;57.90
39665;DHT22;26679;50.872;4.332;2024-01-16T04:48:47;20.90;57.90
39665;DHT22;26679;50.872;4.332;2024-01-16T04:51:12;21.00;57.80
39665;DHT22;26679;50.872;4.332;2024-01-16T04:53:37;20.90;57.70
39665;DHT22;26679;50.872;4.332;2024-01-16T04:56:04;21.00;57.80
39665;DHT22;26679;50.872;4.332;2024-01-16T04:58:29;21.00;57.70
39665;DHT22;26679;50.872;4.332;2024-01-16T05:00:55;21.00;57.60
39665;DHT22;26679;50.872;4.332;2024-01-16T05:03:20;21.10;57.70
39665;DHT22;26679;50.872;4.332;2024-01-16T05:05:45;21.10;57.60
39665;DHT22;26679;50.872;4.332;2024-01-16T05:08:11;21.10;57.60
39665;DHT22;26679;50.872;4.332;2024-01-16T05:10:36;21.20;57.60
39665;DHT22;26679;50.872;4.332;2024-01-16T05:13:02;21.20;57.60
39665;DHT22;26679;50.872;4.332;2024-01-16T05:15:27;21.20;57.50
39665;DHT22;26679;50.872;4.332;2024-01-16T05:17:53;21.30;57.50
39665;DHT22;26679;50.872;4.332;2024-01-16T05:20:18;21.30;57.50
39665;DHT22;26679;50.872;4.332;2024-01-16T05:22:44;21.30;57.50
39665;DHT22;26679;50.872;4.332;2024-01-16T05:25:09;21.30;57.50
39665;DHT22;26679;50.872;4.332;2024-01-16T05:27:35;21.20;57.50
39665;DHT22;26679;50.872;4.332;2024-01-16T05:30:00;21.20;57.50
39665;DHT22;26679;50.872;4.332;2024-01-16T05:32:26;21.10;57.40
39665;DHT22;26679;50.872;4.332;2024-01-16T05:34:51;21.10;57.50
39665;DHT22;26679;50.872;4.332;2024-01-16T05:37:17;21.10;57.50
39665;DHT22;26679;50.872;4.332;2024-01-16T05:39:43;21.20;57.50
39665;DHT22;26679;50.872;4.332;2024-01-16T05:42:09;21.20;57.40
39665;DHT22;26679;50.872;4.332;2024-01-16T05:44:34;21.30;57.50
39665;DHT22;26679;50.872;4.332;2024-01-16T05:46:59;21.30;57.40
39665;DHT22;26679;50.872;4.332;2024-01-16T05:49:25;21.30;57.40
39665;DHT22;26679;50.872;4.332;2024-01-16T05:51:50;21.30;57.40
39665;DHT22;26679;50.872;4.332;2024-01-16T05:54:16;21.20;57.40
39665;DHT22;26679;50.872;4.332;2024-01-16T05:56:41;21.20;57.30
39665;DHT22;26679;50.872;4.332;2024-01-16T05:59:07;21.20;57.30
39665;DHT22;26679;50.872;4.332;2024-01-16T06:01:32;21.20;57.40
39665;DHT22;26679;50.872;4.332;2024-01-16T06:03:58;21.20;57.40
39665;DHT22;26679;50.872;4.332;2024-01-16T06:06:24;21.20;57.40
39665;DHT22;26679;50.872;4.332;2024-01-16T06:08:49;21.20;57.40
39665;DHT22;26679;50.872;4.332;2024-01-16T06:11:15;21.20;57.40
39665;DHT22;26679;50.872;4.332;2024-01-16T06:13:40;21.10;57.40
39665;DHT22;26679;50.872;4.332;2024-01-16T06:16:06;21.20;57.50
39665;DHT22;26679;50.872;4.332;2024-01-16T06:18:33;21.20;57.40
39665;DHT22;26679;50.872;4.332;2024-01-16T06:20:59;21.20;57.40
39665;DHT22;26679;50.872;4.332;2024-01-16T06:23:24;21.20;57.40
39665;DHT22;26679;50.872;4.332;2024-01-16T06:25:50;21.20;57.40
39665;DHT22;26679;50.872;4.332;2024-01-16T06:28:15;21.20;57.30
39665;DHT22;26679;50.872;4.332;2024-01-16T06:30:41;21.20;57.40
39665;DHT22;26679;50.872;4.332;2024-01-16T06:33:06;21.20;57.40
39665;DHT22;26679;50.872;4.332;2024-01-16T06:35:32;21.20;57.40
39665;DHT22;26679;50.872;4.332;2024-01-16T06:37:57;21.20;57.40
39665;DHT22;26679;50.872;4.332;2024-01-16T06:40:23;21.20;57.40
39665;DHT22;26679;50.872;4.332;2024-01-16T06:42:49;21.20;57.40
39665;DHT22;26679;50.872;4.332;2024-01-16T06:45:14;21.20;57.40
39665;DHT22;26679;50.872;4.332;2024-01-16T06:47:41;21.20;57.30
39665;DHT22;26679;50.872;4.332;2024-01-16T06:50:07;21.20;57.40
39665;DHT22;26679;50.872;4.332;2024-01-16T06:52:33;21.20;57.30
39665;DHT22;26679;50.872;4.332;2024-01-16T06:54:58;21.20;57.30
39665;DHT22;26679;50.872;4.332;2024-01-16T06:57:24;21.20;57.20
39665;DHT22;26679;50.872;4.332;2024-01-16T06:59:49;21.20;57.20
39665;DHT22;26679;50.872;4.332;2024-01-16T07:02:15;21.20;57.20
39665;DHT22;26679;50.872;4.332;2024-01-16T07:04:40;21.20;57.20
39665;DHT22;26679;50.872;4.332;2024-01-16T07:07:05;21.20;57.20
39665;DHT22;26679;50.872;4.332;2024-01-16T07:09:31;21.30;57.30
39665;DHT22;26679;50.872;4.332;2024-01-16T07:11:56;21.20;57.20
39665;DHT22;26679;50.872;4.332;2024-01-16T07:14:22;21.30;57.20
39665;DHT22;26679;50.872;4.332;2024-01-16T07:16:47;21.30;57.10
39665;DHT22;26679;50.872;4.332;2024-01-16T07:19:13;21.30;57.10
39665;DHT22;26679;50.872;4.332;2024-01-16T07:21:38;21.30;57.10
39665;DHT22;26679;50.872;4.332;2024-01-16T07:24:04;21.30;57.10
39665;DHT22;26679;50.872;4.332;2024-01-16T07:26:29;21.30;57.10
39665;DHT22;26679;50.872;4.332;2024-01-16T07:28:55;21.30;57.10
39665;DHT22;26679;50.872;4.332;2024-01-16T07:31:23;21.30;57.10
39665;DHT22;26679;50.872;4.332;2024-01-16T07:33:48;21.40;57.10
39665;DHT22;26679;50.872;4.332;2024-01-16T07:36:14;21.30;57.00
39665;DHT22;26679;50.872;4.332;2024-01-16T07:38:39;21.40;57.00
39665;DHT22;26679;50.872;4.332;2024-01-16T07:41:05;21.30;56.90
39665;DHT22;26679;50.872;4.332;2024-01-16T07:43:30;21.30;56.90
39665;DHT22;26679;50.872;4.332;2024-01-16T07:45:56;21.30;56.90
39665;DHT22;26679;50.872;4.332;2024-01-16T07:48:21;21.30;56.90
39665;DHT22;26679;50.872;4.332;2024-01-16T07:50:48;21.30;56.90
39665;DHT22;26679;50.872;4.332;2024-01-16T07:53:14;21.30;56.90
39665;DHT22;26679;50.872;4.332;2024-01-16T07:55:40;21.30;56.90
39665;DHT22;26679;50.872;4.332;2024-01-16T07:58:06;21.20;57.40
39665;DHT22;26679;50.872;4.332;2024-01-16T08:00:31;21.30;56.90
39665;DHT22;26679;50.872;4.332;2024-01-16T08:02:57;21.30;56.90
39665;DHT22;26679;50.872;4.332;2024-01-16T08:05:23;21.30;56.90
39665;DHT22;26679;50.872;4.332;2024-01-16T08:07:51;21.30;56.90
39665;DHT22;26679;50.872;4.332;2024-01-16T08:10:18;21.20;56.90
39665;DHT22;26679;50.872;4.332;2024-01-16T08:12:43;21.30;56.90
39665;DHT22;26679;50.872;4.332;2024-01-16T08:15:10;21.30;56.90
39665;DHT22;26679;50.872;4.332;2024-01-16T08:17:36;21.30;56.80
39665;DHT22;26679;50.872;4.332;2024-01-16T08:20:01;21.30;56.90
39665;DHT22;26679;50.872;4.332;2024-01-16T08:22:26;21.30;56.80
39665;DHT22;26679;50.872;4.332;2024-01-16T08:24:52;21.30;56.80
39665;DHT22;26679;50.872;4.332;2024-01-16T08:27:19;21.30;56.80
39665;DHT22;26679;50.872;4.332;2024-01-16T08:29:44;21.30;56.80
39665;DHT22;26679;50.872;4.332;2024-01-16T08:32:10;21.30;56.70
39665;DHT22;26679;50.872;4.332;2024-01-16T08:34:35;21.30;56.70
39665;DHT22;26679;50.872;4.332;2024-01-16T08:37:01;21.30;56.70
39665;DHT22;26679;50.872;4.332;2024-01-16T08:39:26;21.30;56.70
39665;DHT22;26679;50.872;4.332;2024-01-16T08:41:53;21.30;56.70
39665;DHT22;26679;50.872;4.332;2024-01-16T08:44:19;21.30;56.60
39665;DHT22;26679;50.872;4.332;2024-01-16T08:46:44;21.30;56.60
39665;DHT22;26679;50.872;4.332;2024-01-16T08:49:11;21.30;56.60
39665;DHT22;26679;50.872;4.332;2024-01-16T08:51:37;21.30;56.60
39665;DHT22;26679;50.872;4.332;2024-01-16T08:54:02;21.30;56.60
39665;DHT22;26679;50.872;4.332;2024-01-16T08:56:28;21.40;56.60
39665;DHT22;26679;50.872;4.332;2024-01-16T08:58:53;21.30;56.60
39665;DHT22;26679;50.872;4.332;2024-01-16T09:01:19;21.40;56.60
39665;DHT22;26679;50.872;4.332;2024-01-16T09:03:46;21.40;56.60
39665;DHT22;26679;50.872;4.332;2024-01-16T09:06:12;21.40;56.60
39665;DHT22;26679;50.872;4.332;2024-01-16T09:08:38;21.50;56.60
39665;DHT22;26679;50.872;4.332;2024-01-16T09:11:03;21.50;56.50
39665;DHT22;26679;50.872;4.332;2024-01-16T09:13:28;21.50;56.50
39665;DHT22;26679;50.872;4.332;2024-01-16T09:15:54;21.50;56.50
39665;DHT22;26679;50.872;4.332;2024-01-16T09:18:19;21.50;56.50
39665;DHT22;26679;50.872;4.332;2024-01-16T09:20:45;21.50;56.50
39665;DHT22;26679;50.872;4.332;2024-01-16T09:23:10;21.60;56.40
39665;DHT22;26679;50.872;4.332;2024-01-16T09:25:36;21.60;56.90
39665;DHT22;26679;50.872;4.332;2024-01-16T09:28:01;21.70;56.40
39665;DHT22;26679;50.872;4.332;2024-01-16T09:30:27;21.70;56.30
39665;DHT22;26679;50.872;4.332;2024-01-16T09:32:53;21.70;56.20
39665;DHT22;26679;50.872;4.332;2024-01-16T09:35:18;21.70;56.20
39665;DHT22;26679;50.872;4.332;2024-01-16T09:37:44;21.70;56.20
39665;DHT22;26679;50.872;4.332;2024-01-16T09:40:10;21.80;56.20
39665;DHT22;26679;50.872;4.332;2024-01-16T09:42:35;21.80;56.10
39665;DHT22;26679;50.872;4.332;2024-01-16T09:45:01;21.80;56.20
39665;DHT22;26679;50.872;4.332;2024-01-16T09:47:30;21.80;56.10
39665;DHT22;26679;50.872;4.332;2024-01-16T09:49:56;21.70;56.10
39665;DHT22;26679;50.872;4.332;2024-01-16T09:52:22;21.80;56.10
39665;DHT22;26679;50.872;4.332;2024-01-16T09:54:47;21.70;56.10
39665;DHT22;26679;50.872;4.332;2024-01-16T09:57:13;21.70;56.10
39665;DHT22;26679;50.872;4.332;2024-01-16T09:59:40;21.70;56.10
39665;DHT22;26679;50.872;4.332;2024-01-16T10:02:07;21.80;56.10
39665;DHT22;26679;50.872;4.332;2024-01-16T10:04:34;21.80;56.10
39665;DHT22;26679;50.872;4.332;2024-01-16T10:06:59;21.80;56.10
39665;DHT22;26679;50.872;4.332;2024-01-16T10:09:27;21.80;56.10
39665;DHT22;26679;50.872;4.332;2024-01-16T10:11:52;21.80;56.00
39665;DHT22;26679;50.872;4.332;2024-01-16T10:14:18;21.80;56.60
39665;DHT22;26679;50.872;4.332;2024-01-16T10:16:59;21.80;56.00
39665;DHT22;26679;50.872;4.332;2024-01-16T10:19:31;21.90;56.00
39665;DHT22;26679;50.872;4.332;2024-01-16T10:22:03;21.90;55.90
39665;DHT22;26679;50.872;4.332;2024-01-16T10:24:29;21.80;55.80
39665;DHT22;26679;50.872;4.332;2024-01-16T10:26:59;21.90;55.90
39665;DHT22;26679;50.872;4.332;2024-01-16T10:29:31;21.80;55.80
39665;DHT22;26679;50.872;4.332;2024-01-16T10:32:00;21.80;55.80
39665;DHT22;26679;50.872;4.332;2024-01-16T10:34:25;21.90;55.90
39665;DHT22;26679;50.872;4.332;2024-01-16T10:36:52;21.90;55.90
39665;DHT22;26679;50.872;4.332;2024-01-16T10:39:17;21.90;55.90
39665;DHT22;26679;50.872;4.332;2024-01-16T10:41:53;21.80;55.80
39665;DHT22;26679;50.872;4.332;2024-01-16T10:44:18;21.90;55.90
39665;DHT22;26679;50.872;4.332;2024-01-16T10:46:44;21.90;55.90
39665;DHT22;26679;50.872;4.332;2024-01-16T10:49:09;22.00;55.90
39665;DHT22;26679;50.872;4.332;2024-01-16T10:51:35;22.00;55.80
39665;DHT22;26679;50.872;4.332;2024-01-16T10:54:02;22.20;55.80
39665;DHT22;26679;50.872;4.332;2024-01-16T10:56:29;22.20;55.80
39665;DHT22;26679;50.872;4.332;2024-01-16T10:59:01;22.30;55.70
39665;DHT22;26679;50.872;4.332;2024-01-16T11:01:31;22.30;55.70
39665;DHT22;26679;50.872;4.332;2024-01-16T11:03:57;22.40;55.70
39665;DHT22;26679;50.872;4.332;2024-01-16T11:06:24;22.40;55.60
39665;DHT22;26679;50.872;4.332;2024-01-16T11:08:50;22.40;55.60
39665;DHT22;26679;50.872;4.332;2024-01-16T11:11:16;22.40;55.60
39665;DHT22;26679;50.872;4.332;2024-01-16T11:13:42;22.40;55.70
39665;DHT22;26679;50.872;4.332;2024-01-16T11:16:10;22.50;55.60
39665;DHT22;26679;50.872;4.332;2024-01-16T11:18:36;22.50;55.60
39665;DHT22;26679;50.872;4.332;2024-01-16T11:21:02;22.50;55.60
39665;DHT22;26679;50.872;4.332;2024-01-16T11:23:29;22.50;55.60
39665;DHT22;26679;50.872;4.332;2024-01-16T11:25:55;22.60;55.60
39665;DHT22;26679;50.872;4.332;2024-01-16T11:28:20;22.60;55.50
39665;DHT22;26679;50.872;4.332;2024-01-16T11:30:51;22.60;55.40
39665;DHT22;26679;50.872;4.332;2024-01-16T11:35:58;22.70;55.40
39665;DHT22;26679;50.872;4.332;2024-01-16T11:38:24;22.70;55.40
39665;DHT22;26679;50.872;4.332;2024-01-16T11:40:55;22.70;55.40
39665;DHT22;26679;50.872;4.332;2024-01-16T11:45:58;22.80;55.40
39665;DHT22;26679;50.872;4.332;2024-01-16T11:48:24;22.80;55.40
39665;DHT22;26679;50.872;4.332;2024-01-16T11:50:50;22.80;55.40
39665;DHT22;26679;50.872;4.332;2024-01-16T11:56:21;22.80;55.30
39665;DHT22;26679;50.872;4.332;2024-01-16T12:01:18;22.90;55.30
39665;DHT22;26679;50.872;4.332;2024-01-16T12:03:45;23.00;55.40
39665;DHT22;26679;50.872;4.332;2024-01-16T12:06:10;22.90;55.30
39665;DHT22;26679;50.872;4.332;2024-01-16T12:08:36;23.00;55.40
39665;DHT22;26679;50.872;4.332;2024-01-16T12:11:04;23.00;55.30
39665;DHT22;26679;50.872;4.332;2024-01-16T12:13:29;23.00;55.30
39665;DHT22;26679;50.872;4.332;2024-01-16T12:15:59;23.10;55.30
39665;DHT22;26679;50.872;4.332;2024-01-16T12:18:24;23.10;55.30
39665;DHT22;26679;50.872;4.332;2024-01-16T12:20:50;23.00;55.30
39665;DHT22;26679;50.872;4.332;2024-01-16T12:23:15;23.10;55.30
39665;DHT22;26679;50.872;4.332;2024-01-16T12:25:41;23.10;55.30
39665;DHT22;26679;50.872;4.332;2024-01-16T12:28:07;23.10;55.80
39665;DHT22;26679;50.872;4.332;2024-01-16T12:30:36;23.10;55.20
39665;DHT22;26679;50.872;4.332;2024-01-16T12:33:08;23.10;55.20
39665;DHT22;26679;50.872;4.332;2024-01-16T12:35:41;23.10;55.20
39665;DHT22;26679;50.872;4.332;2024-01-16T12:38:07;23.10;55.10
39665;DHT22;26679;50.872;4.332;2024-01-16T12:40:36;23.00;55.00
39665;DHT22;26679;50.872;4.332;2024-01-16T12:43:02;23.10;55.10
39665;DHT22;26679;50.872;4.332;2024-01-16T12:45:28;23.00;55.00
39665;DHT22;26679;50.872;4.332;2024-01-16T12:47:54;23.00;55.00
39665;DHT22;26679;50.872;4.332;2024-01-16T12:50:20;23.00;55.10
39665;DHT22;26679;50.872;4.332;2024-01-16T12:52:48;23.00;55.10
39665;DHT22;26679;50.872;4.332;2024-01-16T12:55:13;23.00;55.00
39665;DHT22;26679;50.872;4.332;2024-01-16T12:57:39;23.00;55.00
39665;DHT22;26679;50.872;4.332;2024-01-16T13:00:20;23.00;55.00
39665;DHT22;26679;50.872;4.332;2024-01-16T13:02:48;23.00;55.10
39665;DHT22;26679;50.872;4.332;2024-01-16T13:05:14;23.00;55.00
39665;DHT22;26679;50.872;4.332;2024-01-16T13:07:41;23.00;55.00
39665;DHT22;26679;50.872;4.332;2024-01-16T13:10:07;23.00;55.00
39665;DHT22;26679;50.872;4.332;2024-01-16T13:12:33;23.00;55.00
39665;DHT22;26679;50.872;4.332;2024-01-16T13:14:59;23.00;54.90
39665;DHT22;26679;50.872;4.332;2024-01-16T13:17:24;23.00;54.90
39665;DHT22;26679;50.872;4.332;2024-01-16T13:19:50;23.00;54.90
39665;DHT22;26679;50.872;4.332;2024-01-16T13:22:16;23.00;54.90
39665;DHT22;26679;50.872;4.332;2024-01-16T13:24:41;23.00;54.90
39665;DHT22;26679;50.872;4.332;2024-01-16T13:27:07;23.00;54.90
39665;DHT22;26679;50.872;4.332;2024-01-16T13:29:34;23.00;54.90
39665;DHT22;26679;50.872;4.332;2024-01-16T13:32:03;23.00;54.90
39665;DHT22;26679;50.872;4.332;2024-01-16T13:34:29;22.90;54.90
39665;DHT22;26679;50.872;4.332;2024-01-16T13:36:56;22.90;54.90
39665;DHT22;26679;50.872;4.332;2024-01-16T13:39:25;22.90;54.90
39665;DHT22;26679;50.872;4.332;2024-01-16T13:41:50;22.80;54.90
39665;DHT22;26679;50.872;4.332;2024-01-16T13:44:16;22.80;54.90
39665;DHT22;26679;50.872;4.332;2024-01-16T13:46:41;22.80;54.90
39665;DHT22;26679;50.872;4.332;2024-01-16T13:49:07;22.80;54.90
39665;DHT22;26679;50.872;4.332;2024-01-16T13:51:32;22.70;54.90
39665;DHT22;26679;50.872;4.332;2024-01-16T13:53:58;22.70;54.90
39665;DHT22;26679;50.872;4.332;2024-01-16T13:56:24;22.70;54.90
39665;DHT22;26679;50.872;4.332;2024-01-16T13:58:49;22.70;54.90
39665;DHT22;26679;50.872;4.332;2024-01-16T14:01:15;22.70;54.90
39665;DHT22;26679;50.872;4.332;2024-01-16T14:03:41;22.70;54.90
39665;DHT22;26679;50.872;4.332;2024-01-16T14:06:08;22.70;54.90
39665;DHT22;26679;50.872;4.332;2024-01-16T14:08:33;22.70;54.90
39665;DHT22;26679;50.872;4.332;2024-01-16T14:10:59;22.70;54.90
39665;DHT22;26679;50.872;4.332;2024-01-16T14:13:24;22.70;54.90
39665;DHT22;26679;50.872;4.332;2024-01-16T14:15:50;22.70;54.90
39665;DHT22;26679;50.872;4.332;2024-01-16T14:18:17;22.70;54.90
39665;DHT22;26679;50.872;4.332;2024-01-16T14:20:42;22.70;55.00
39665;DHT22;26679;50.872;4.332;2024-01-16T14:23:08;22.70;55.00
39665;DHT22;26679;50.872;4.332;2024-01-16T14:25:33;22.60;54.90
39665;DHT22;26679;50.872;4.332;2024-01-16T14:27:59;22.60;54.90
39665;DHT22;26679;50.872;4.332;2024-01-16T14:30:25;22.60;55.00
39665;DHT22;26679;50.872;4.332;2024-01-16T14:32:51;22.60;55.00
39665;DHT22;26679;50.872;4.332;2024-01-16T14:35:17;22.60;55.00
39665;DHT22;26679;50.872;4.332;2024-01-16T14:37:43;22.60;55.00
39665;DHT22;26679;50.872;4.332;2024-01-16T14:40:09;22.50;55.00
39665;DHT22;26679;50.872;4.332;2024-01-16T14:42:53;22.50;55.00
39665;DHT22;26679;50.872;4.332;2024-01-16T14:45:23;22.50;55.00
39665;DHT22;26679;50.872;4.332;2024-01-16T14:47:49;22.40;55.00
39665;DHT22;26679;50.872;4.332;2024-01-16T14:50:15;22.40;55.00
39665;DHT22;26679;50.872;4.332;2024-01-16T14:52:43;22.40;55.10
39665;DHT22;26679;50.872;4.332;2024-01-16T14:55:08;22.40;55.20
39665;DHT22;26679;50.872;4.332;2024-01-16T14:57:34;22.30;55.10
39665;DHT22;26679;50.872;4.332;2024-01-16T15:00:10;22.30;55.10
39665;DHT22;26679;50.872;4.332;2024-01-16T15:02:51;22.30;55.10
39665;DHT22;26679;50.872;4.332;2024-01-16T15:05:17;22.30;55.20
39665;DHT22;26679;50.872;4.332;2024-01-16T15:07:43;22.30;55.10
39665;DHT22;26679;50.872;4.332;2024-01-16T15:10:09;22.30;55.20
39665;DHT22;26679;50.872;4.332;2024-01-16T15:12:39;22.20;55.20
39665;DHT22;26679;50.872;4.332;2024-01-16T15:15:06;22.20;55.20
39665;DHT22;26679;50.872;4.332;2024-01-16T15:17:32;22.20;55.20
39665;DHT22;26679;50.872;4.332;2024-01-16T15:19:58;22.20;55.20
39665;DHT22;26679;50.872;4.332;2024-01-16T15:22:23;22.20;55.20
39665;DHT22;26679;50.872;4.332;2024-01-16T15:24:49;22.20;55.20
39665;DHT22;26679;50.872;4.332;2024-01-16T15:27:14;22.30;55.20
39665;DHT22;26679;50.872;4.332;2024-01-16T15:29:40;22.30;55.20
39665;DHT22;26679;50.872;4.332;2024-01-16T15:32:06;22.30;55.10
39665;DHT22;26679;50.872;4.332;2024-01-16T15:34:32;22.30;55.10